createdAt,value
2023-04-26T00:01:10.798Z,98751.05
2023-04-26T00:03:39.955Z,98750.69
2023-04-26T00:06:08.264Z,98752.61
2023-04-26T00:08:38.430Z,98751.38
2023-04-26T00:11:04.920Z,98755.03
2023-04-26T00:13:31.481Z,98755.55
2023-04-26T00:15:58.083Z,98756.29
2023-04-26T00:18:24.714Z,98758.02
2023-04-26T00:20:51.327Z,98757.97
2023-04-26T00:23:17.899Z,98759.36
2023-04-26T00:25:44.356Z,98761.31
2023-04-26T00:28:10.929Z,98761.50
2023-04-26T00:30:40.582Z,98765.02
2023-04-26T00:33:07.308Z,98762.79
2023-04-26T00:35:33.971Z,98764.54
2023-04-26T00:38:00.590Z,98767.52
2023-04-26T00:40:27.157Z,98763.76
2023-04-26T00:42:57.590Z,98761.23
2023-04-26T00:45:24.226Z,98764.02
2023-04-26T00:47:51.090Z,98769.27
2023-04-26T00:50:18.385Z,98770.52
2023-04-26T00:52:46.655Z,98770.05
2023-04-26T00:55:13.880Z,98770.57
2023-04-26T00:57:40.732Z,98770.77
2023-04-26T01:00:07.919Z,98772.95
2023-04-26T01:02:34.817Z,98775.25
2023-04-26T01:05:01.649Z,98775.54
2023-04-26T01:07:28.328Z,98776.16
2023-04-26T01:09:55.972Z,98774.88
2023-04-26T01:12:23.680Z,98777.46
2023-04-26T01:14:51.194Z,98777.63
2023-04-26T01:17:19.371Z,98777.09
2023-04-26T01:19:49.534Z,98780.62
2023-04-26T01:22:16.114Z,98785.45
2023-04-26T01:24:45.712Z,98784.55
2023-04-26T01:27:12.303Z,98783.15
2023-04-26T01:29:40.925Z,98786.06
2023-04-26T01:32:07.437Z,98787.08
2023-04-26T01:34:34.100Z,98785.94
2023-04-26T01:37:01.000Z,98793.36
2023-04-26T01:39:27.840Z,98795.60
2023-04-26T01:41:57.855Z,98800.60
2023-04-26T01:44:24.321Z,98804.19
2023-04-26T01:46:51.885Z,98804.80
2023-04-26T01:49:18.445Z,98804.70
2023-04-26T01:51:46.963Z,98798.49
2023-04-26T01:54:13.497Z,98796.98
2023-04-26T01:56:40.015Z,98801.00
2023-04-26T01:59:06.624Z,98805.90
2023-04-26T02:01:33.147Z,98800.32
2023-04-26T02:03:59.657Z,98799.77
2023-04-26T02:06:26.184Z,98804.14
2023-04-26T02:08:53.629Z,98803.11
2023-04-26T02:11:20.724Z,98805.27
2023-04-26T02:13:47.257Z,98810.72
2023-04-26T02:16:15.768Z,98812.45
2023-04-26T02:18:42.226Z,98810.52
2023-04-26T02:21:11.055Z,98810.58
2023-04-26T02:23:37.825Z,98812.81
2023-04-26T02:26:04.551Z,98807.70
2023-04-26T02:28:31.491Z,98809.63
2023-04-26T02:30:58.118Z,98813.67
2023-04-26T02:33:24.962Z,98813.76
2023-04-26T02:35:51.549Z,98810.15
2023-04-26T02:38:18.825Z,98811.05
2023-04-26T02:40:45.416Z,98811.21
2023-04-26T02:43:12.393Z,98811.76
2023-04-26T02:45:42.579Z,98812.08
2023-04-26T02:48:10.606Z,98818.99
2023-04-26T02:50:37.371Z,98815.73
2023-04-26T02:53:04.478Z,98815.47
2023-04-26T02:55:31.644Z,98815.83
2023-04-26T02:57:58.174Z,98813.65
2023-04-26T03:00:25.546Z,98814.60
2023-04-26T03:02:52.622Z,98821.31
2023-04-26T03:05:19.501Z,98825.73
2023-04-26T03:07:46.237Z,98828.77
2023-04-26T03:10:13.140Z,98822.09
2023-04-26T03:12:40.363Z,98830.53
2023-04-26T03:15:07.329Z,98832.21
2023-04-26T03:17:34.920Z,98834.52
2023-04-26T03:20:02.853Z,98834.60
2023-04-26T03:22:29.900Z,98839.05
2023-04-26T03:24:56.393Z,98839.85
2023-04-26T03:27:23.407Z,98844.08
2023-04-26T03:29:53.258Z,98851.78
2023-04-26T03:32:20.019Z,98851.33
2023-04-26T03:34:48.049Z,98857.44
2023-04-26T03:37:15.062Z,98861.71
2023-04-26T03:39:43.140Z,98864.82
2023-04-26T03:42:09.703Z,98867.48
2023-04-26T03:44:36.628Z,98863.73
2023-04-26T03:47:04.536Z,98867.51
2023-04-26T03:49:31.915Z,98869.48
2023-04-26T03:51:58.456Z,98867.48
2023-04-26T03:54:25.109Z,98869.13
2023-04-26T03:56:52.474Z,98869.65
2023-04-26T03:59:20.119Z,98875.40
2023-04-26T04:01:47.503Z,98879.84
2023-04-26T04:04:14.307Z,98880.73
2023-04-26T04:06:41.392Z,98886.68
2023-04-26T04:09:08.435Z,98882.15
2023-04-26T04:11:34.972Z,98881.64
2023-04-26T04:14:02.258Z,98886.06
2023-04-26T04:16:29.046Z,98883.93
2023-04-26T04:18:56.029Z,98887.25
2023-04-26T04:21:22.521Z,98889.44
2023-04-26T04:23:49.537Z,98887.41
2023-04-26T04:26:16.743Z,98891.29
2023-04-26T04:28:44.844Z,98889.61
2023-04-26T04:31:12.313Z,98891.61
2023-04-26T04:33:39.042Z,98895.33
2023-04-26T04:36:07.610Z,98895.83
2023-04-26T04:38:35.199Z,98895.23
2023-04-26T04:41:03.972Z,98897.48
2023-04-26T04:43:30.680Z,98890.38
2023-04-26T04:45:57.841Z,98896.33
2023-04-26T04:48:24.420Z,98897.96
2023-04-26T04:50:51.099Z,98898.63
2023-04-26T04:53:18.030Z,98895.46
2023-04-26T04:55:44.783Z,98899.24
2023-04-26T04:58:14.137Z,98902.12
2023-04-26T05:00:41.019Z,98908.41
2023-04-26T05:03:19.669Z,98906.32
2023-04-26T05:05:46.930Z,98908.88
2023-04-26T05:08:14.452Z,98910.25
2023-04-26T05:10:41.022Z,98907.63
2023-04-26T05:13:07.544Z,98909.66
2023-04-26T05:15:34.109Z,98910.95
2023-04-26T05:18:00.762Z,98908.64
2023-04-26T05:20:28.824Z,98914.35
2023-04-26T05:22:55.489Z,98915.33
2023-04-26T05:25:22.791Z,98917.04
2023-04-26T05:27:54.068Z,98915.88
2023-04-26T05:30:46.796Z,98919.36
2023-04-26T05:33:33.639Z,98920.54
2023-04-26T05:36:15.387Z,98923.42
2023-04-26T05:38:41.976Z,98927.39
2023-04-26T05:41:09.897Z,98927.25
2023-04-26T05:43:37.234Z,98927.55
2023-04-26T05:46:05.421Z,98934.71
2023-04-26T05:48:31.981Z,98926.88
2023-04-26T05:50:58.513Z,98922.98
2023-04-26T05:53:25.229Z,98924.17
2023-04-26T05:55:52.018Z,98925.05
2023-04-26T05:58:18.546Z,98926.98
2023-04-26T06:00:45.801Z,98922.33
2023-04-26T06:03:12.908Z,98922.88
2023-04-26T06:05:40.513Z,98928.33
2023-04-26T06:08:07.402Z,98926.33
2023-04-26T06:10:35.673Z,98922.91
2023-04-26T06:13:02.211Z,98921.15
2023-04-26T06:15:31.014Z,98929.34
2023-04-26T06:17:58.915Z,98930.48
2023-04-26T06:20:25.667Z,98929.90
2023-04-26T06:22:52.159Z,98932.96
2023-04-26T06:25:18.703Z,98933.64
2023-04-26T06:27:46.106Z,98930.43
2023-04-26T06:30:13.657Z,98931.58
2023-04-26T06:32:43.233Z,98934.81
2023-04-26T06:35:10.213Z,98923.68
2023-04-26T06:37:37.020Z,98923.41
2023-04-26T06:40:04.434Z,98924.14
2023-04-26T06:42:31.409Z,98928.28
2023-04-26T06:45:21.350Z,98927.04
2023-04-26T06:47:52.426Z,98925.95
2023-04-26T06:50:19.271Z,98923.35
2023-04-26T06:52:45.749Z,98933.05
2023-04-26T06:55:12.268Z,98938.43
2023-04-26T06:57:38.741Z,98939.05
2023-04-26T07:00:06.080Z,98942.48
2023-04-26T07:02:32.710Z,98940.53
2023-04-26T07:04:59.581Z,98939.23
2023-04-26T07:07:26.709Z,98944.46
2023-04-26T07:09:53.362Z,98952.17
2023-04-26T07:12:20.425Z,98948.91
2023-04-26T07:14:46.929Z,98949.98
2023-04-26T07:17:13.393Z,98953.41
2023-04-26T07:19:40.128Z,98954.25
2023-04-26T07:22:06.727Z,98951.13
2023-04-26T07:24:33.218Z,98951.65
2023-04-26T07:27:01.351Z,98950.36
2023-04-26T07:29:28.222Z,98954.45
2023-04-26T07:31:56.309Z,98955.35
2023-04-26T07:34:22.849Z,98958.79
2023-04-26T07:36:49.463Z,98955.59
2023-04-26T07:39:15.990Z,98955.66
2023-04-26T07:41:43.841Z,98956.54
2023-04-26T07:44:10.800Z,98959.27
2023-04-26T07:53:22.241Z,98956.88
2023-04-26T07:55:51.004Z,98957.17
2023-04-26T07:58:18.702Z,98960.20
2023-04-26T08:00:45.353Z,98963.01
2023-04-26T08:03:15.973Z,98959.14
2023-04-26T08:05:43.535Z,98962.73
2023-04-26T08:08:10.418Z,98956.29
2023-04-26T08:10:40.888Z,98961.86
2023-04-26T08:13:07.714Z,98961.58
2023-04-26T08:15:34.308Z,98963.77
2023-04-26T08:18:01.314Z,98966.32
2023-04-26T08:20:27.874Z,98968.89
2023-04-26T08:22:56.332Z,98966.77
2023-04-26T08:25:23.980Z,98973.95
2023-04-26T08:27:51.796Z,98977.28
2023-04-26T08:30:19.223Z,98967.48
2023-04-26T08:32:45.806Z,98960.65
2023-04-26T08:35:12.760Z,98960.27
2023-04-26T08:37:39.321Z,98966.42
2023-04-26T08:40:09.977Z,98970.93
2023-04-26T08:42:43.728Z,98971.52
2023-04-26T08:45:11.035Z,98977.27
2023-04-26T08:47:47.059Z,98978.11
2023-04-26T08:50:15.624Z,98975.18
2023-04-26T08:52:43.852Z,98974.30
2023-04-26T08:55:12.263Z,98976.75
2023-04-26T08:57:42.886Z,98976.42
2023-04-26T09:00:12.819Z,98970.77
2023-04-26T09:02:42.336Z,98966.73
2023-04-26T09:05:10.114Z,98970.45
2023-04-26T09:07:42.333Z,98975.05
2023-04-26T09:10:10.532Z,98976.16
2023-04-26T09:12:37.886Z,98975.07
2023-04-26T09:15:09.732Z,98979.91
2023-04-26T09:17:41.152Z,98991.13
2023-04-26T09:20:25.048Z,98979.13
2023-04-26T09:22:52.601Z,98986.45
2023-04-26T09:25:29.556Z,98983.70
2023-04-26T09:27:56.850Z,98989.09
2023-04-26T09:30:23.909Z,98998.66
2023-04-26T09:32:54.177Z,98990.23
2023-04-26T09:35:27.374Z,98986.73
2023-04-26T09:38:01.068Z,98982.33
2023-04-26T09:40:42.247Z,98982.10
2023-04-26T09:43:22.041Z,98971.23
2023-04-26T09:45:56.904Z,98965.73
2023-04-26T09:48:29.901Z,98977.61
2023-04-26T09:50:59.287Z,98976.83
2023-04-26T09:53:28.226Z,98981.16
2023-04-26T09:55:56.246Z,98982.59
2023-04-26T09:58:23.465Z,98980.58
2023-04-26T10:00:51.549Z,98977.36
2023-04-26T10:03:20.277Z,98974.50
2023-04-26T10:05:47.468Z,98962.83
2023-04-26T10:08:14.506Z,98972.55
2023-04-26T10:10:42.065Z,98982.95
2023-04-26T10:13:10.446Z,98984.34
2023-04-26T10:15:38.997Z,98983.36
2023-04-26T10:18:06.229Z,98977.16
2023-04-26T10:20:34.734Z,98980.30
2023-04-26T10:23:03.017Z,98980.66
2023-04-26T10:25:37.531Z,98987.18
2023-04-26T10:28:05.111Z,98991.05
2023-04-26T10:30:32.260Z,98992.19
2023-04-26T10:32:58.827Z,98986.33
2023-04-26T10:35:30.285Z,98986.21
2023-04-26T10:37:59.849Z,98992.08
2023-04-26T10:40:34.778Z,98990.25
2023-04-26T10:43:10.773Z,98988.18
2023-04-26T10:45:38.868Z,98985.64
2023-04-26T10:48:41.205Z,98981.76
2023-04-26T10:51:07.941Z,98983.88
2023-04-26T10:53:43.363Z,98984.14
2023-04-26T10:56:10.268Z,98977.39
2023-04-26T10:58:40.890Z,98983.83
2023-04-26T11:01:15.851Z,98984.38
2023-04-26T11:03:58.391Z,98984.28
2023-04-26T11:06:29.107Z,98996.99
2023-04-26T11:08:55.813Z,98988.05
2023-04-26T11:11:26.310Z,98996.46
2023-04-26T11:13:52.846Z,98996.34
2023-04-26T11:16:19.513Z,99000.06
2023-04-26T11:18:47.189Z,99002.62
2023-04-26T11:21:17.175Z,98999.51
2023-04-26T11:23:54.262Z,98996.10
2023-04-26T11:26:21.422Z,98996.30
2023-04-26T11:28:48.497Z,98993.86
2023-04-26T11:31:15.451Z,98984.23
2023-04-26T11:33:42.012Z,98983.34
2023-04-26T11:36:09.252Z,98983.65
2023-04-26T11:38:37.381Z,98980.89
2023-04-26T11:41:04.016Z,98976.42
2023-04-26T11:43:38.155Z,98984.17
2023-04-26T11:46:06.982Z,98982.28
2023-04-26T11:48:35.949Z,98982.48
2023-04-26T11:51:04.388Z,98984.14
2023-04-26T11:53:36.865Z,98967.98
2023-04-26T11:56:12.608Z,98984.02
2023-04-26T11:58:39.215Z,98993.77
2023-04-26T12:01:05.699Z,98991.39
2023-04-26T12:03:34.622Z,98997.39
2023-04-26T12:06:01.686Z,99002.13
2023-04-26T12:08:28.305Z,98999.48
2023-04-26T12:11:00.471Z,98992.27
2023-04-26T12:13:28.943Z,98991.32
2023-04-26T12:15:55.673Z,98985.55
2023-04-26T12:18:29.735Z,98987.29
2023-04-26T12:20:58.693Z,98980.80
2023-04-26T12:23:25.925Z,98987.84
2023-04-26T12:25:59.862Z,98984.55
2023-04-26T12:28:26.394Z,98987.13
2023-04-26T12:30:52.904Z,98985.57
2023-04-26T12:33:22.236Z,98982.21
2023-04-26T12:35:49.652Z,98982.31
2023-04-26T12:38:17.516Z,98998.88
2023-04-26T12:40:44.622Z,99005.36
2023-04-26T12:43:11.612Z,99008.66
2023-04-26T12:45:38.185Z,99008.78
2023-04-26T12:48:05.821Z,99003.75
2023-04-26T12:50:32.438Z,99003.73
2023-04-26T12:52:58.987Z,98999.06
2023-04-26T12:55:26.121Z,98997.38
2023-04-26T12:57:52.673Z,99001.73
2023-04-26T13:00:20.887Z,99005.12
2023-04-26T13:02:47.875Z,99007.32
2023-04-26T13:05:14.595Z,99006.27
2023-04-26T13:07:42.790Z,99011.72
2023-04-26T13:10:12.463Z,99006.39
2023-04-26T13:12:39.948Z,99009.20
2023-04-26T13:15:07.372Z,99015.06
2023-04-26T13:17:35.531Z,99021.91
2023-04-26T13:20:03.986Z,99021.58
2023-04-26T13:22:30.858Z,99020.16
2023-04-26T13:24:57.415Z,99017.54
2023-04-26T13:27:24.056Z,99017.23
2023-04-26T13:29:51.733Z,99011.44
2023-04-26T13:32:18.351Z,99012.67
2023-04-26T13:34:45.153Z,99011.71
2023-04-26T13:37:11.855Z,99009.70
2023-04-26T13:39:38.384Z,99010.95
2023-04-26T13:42:05.460Z,99010.60
2023-04-26T13:44:31.973Z,98998.40
2023-04-26T13:47:00.130Z,99004.23
2023-04-26T13:49:26.719Z,99012.13
2023-04-26T13:51:53.419Z,99004.57
2023-04-26T13:54:25.176Z,99015.16
2023-04-26T13:56:52.891Z,99020.28
2023-04-26T13:59:20.075Z,99020.38
2023-04-26T14:01:46.788Z,99014.48
2023-04-26T14:04:13.720Z,99015.73
2023-04-26T14:06:40.819Z,99018.08
2023-04-26T14:09:08.125Z,99029.79
2023-04-26T14:11:35.008Z,99028.15
2023-04-26T14:14:01.769Z,99037.05
2023-04-26T14:16:28.372Z,99039.02
2023-04-26T14:18:54.977Z,99035.84
2023-04-26T14:21:21.659Z,99039.44
2023-04-26T14:23:48.616Z,99038.48
2023-04-26T14:26:15.909Z,99043.52
2023-04-26T14:28:42.434Z,99048.87
2023-04-26T14:31:08.987Z,99052.40
2023-04-26T14:33:35.638Z,99052.23
2023-04-26T14:36:02.455Z,99056.77
2023-04-26T14:38:29.010Z,99052.51
2023-04-26T14:40:55.944Z,99055.65
2023-04-26T14:43:23.225Z,99052.37
2023-04-26T14:45:50.246Z,99048.70
2023-04-26T14:48:17.286Z,99045.89
2023-04-26T14:50:44.172Z,99048.48
2023-04-26T14:53:10.908Z,99046.21
2023-04-26T14:55:37.488Z,99039.65
2023-04-26T14:58:04.122Z,99037.04
2023-04-26T15:00:30.825Z,99033.21
2023-04-26T15:02:57.615Z,99031.91
2023-04-26T15:05:24.462Z,99032.24
2023-04-26T15:07:51.487Z,99045.62
2023-04-26T15:10:18.310Z,99060.98
2023-04-26T15:12:45.236Z,99058.50
2023-04-26T15:15:11.767Z,99056.53
2023-04-26T15:17:38.344Z,99065.14
2023-04-26T15:20:05.671Z,99066.83
2023-04-26T15:22:33.396Z,99070.78
2023-04-26T15:24:59.976Z,99069.91
2023-04-26T15:27:26.522Z,99072.41
2023-04-26T15:29:53.129Z,99070.14
2023-04-26T15:32:19.741Z,99058.94
2023-04-26T15:34:47.026Z,99054.38
2023-04-26T15:37:13.558Z,99054.37
2023-04-26T15:39:40.107Z,99050.94
2023-04-26T15:42:06.626Z,99052.45
2023-04-26T15:44:33.192Z,99049.77
2023-04-26T15:47:03.188Z,99055.48
2023-04-26T15:49:30.250Z,99060.21
2023-04-26T15:51:56.895Z,99071.99
2023-04-26T15:54:23.733Z,99078.17
2023-04-26T15:56:50.315Z,99085.25
2023-04-26T15:59:16.982Z,99079.88
2023-04-26T16:01:43.631Z,99084.00
2023-04-26T16:04:11.259Z,99081.16
2023-04-26T16:06:38.073Z,99079.61
2023-04-26T16:09:17.274Z,99085.17
2023-04-26T16:11:50.584Z,99083.91
2023-04-26T16:14:17.208Z,99082.06
2023-04-26T16:16:45.212Z,99082.53
2023-04-26T16:19:11.835Z,99078.48
2023-04-26T16:21:39.599Z,99080.77
2023-04-26T16:24:08.304Z,99086.02
2023-04-26T16:26:35.018Z,99085.66
2023-04-26T16:29:03.343Z,99085.08
2023-04-26T16:31:31.620Z,99088.20
2023-04-26T16:33:58.755Z,99098.02
2023-04-26T16:36:26.598Z,99098.24
2023-04-26T16:38:53.754Z,99102.50
2023-04-26T16:41:20.561Z,99103.44
2023-04-26T16:43:47.171Z,99103.98
2023-04-26T16:46:14.223Z,99097.98
2023-04-26T16:48:40.811Z,99105.45
2023-04-26T16:51:07.820Z,99111.10
2023-04-26T16:53:35.184Z,99116.40
2023-04-26T16:56:01.836Z,99118.02
2023-04-26T16:58:28.382Z,99111.38
2023-04-26T17:00:55.717Z,99125.77
2023-04-26T17:03:23.796Z,99126.92
2023-04-26T17:05:50.891Z,99126.88
2023-04-26T17:08:18.610Z,99127.83
2023-04-26T17:10:46.278Z,99136.36
2023-04-26T17:13:13.190Z,99139.02
2023-04-26T17:15:40.976Z,99138.61
2023-04-26T17:18:08.833Z,99139.02
2023-04-26T17:20:36.031Z,99138.61
2023-04-26T17:23:03.677Z,99142.08
2023-04-26T17:25:30.591Z,99140.84
2023-04-26T17:27:57.277Z,99147.46
2023-04-26T17:30:23.846Z,99150.42
2023-04-26T17:32:50.837Z,99147.70
2023-04-26T17:35:17.560Z,99149.45
2023-04-26T17:37:49.202Z,99151.59
2023-04-26T17:40:17.181Z,99152.17
2023-04-26T17:42:44.296Z,99155.44
2023-04-26T17:45:13.918Z,99154.91
2023-04-26T17:47:42.143Z,99156.77
2023-04-26T17:50:08.956Z,99154.55
2023-04-26T17:52:36.217Z,99154.67
2023-04-26T17:55:09.158Z,99155.95
2023-04-26T17:57:36.288Z,99154.20
2023-04-26T18:00:03.628Z,99156.48
2023-04-26T18:02:35.664Z,99159.84
2023-04-26T18:05:03.919Z,99161.17
2023-04-26T18:07:30.938Z,99158.14
2023-04-26T18:09:57.460Z,99158.74
2023-04-26T18:12:24.813Z,99163.39
2023-04-26T18:14:51.540Z,99161.71
2023-04-26T18:17:18.225Z,99166.58
2023-04-26T18:19:44.938Z,99168.78
2023-04-26T18:22:11.517Z,99168.35
2023-04-26T18:24:38.321Z,99169.24
2023-04-26T18:27:05.569Z,99171.11
2023-04-26T18:29:32.197Z,99175.20
2023-04-26T18:31:58.764Z,99180.22
2023-04-26T18:34:25.583Z,99183.17
2023-04-26T18:36:52.165Z,99184.67
2023-04-26T18:39:18.685Z,99180.58
2023-04-26T18:41:45.305Z,99185.10
2023-04-26T18:44:14.938Z,99188.73
2023-04-26T18:46:42.443Z,99191.30
2023-04-26T18:49:09.615Z,99195.94
2023-04-26T18:51:36.381Z,99195.54
2023-04-26T18:54:03.267Z,99196.81
2023-04-26T18:56:30.851Z,99201.20
2023-04-26T18:58:57.653Z,99200.27
2023-04-26T19:01:24.245Z,99203.53
2023-04-26T19:03:51.014Z,99204.55
2023-04-26T19:06:17.780Z,99211.36
2023-04-26T19:08:44.782Z,99209.30
2023-04-26T19:11:11.964Z,99212.41
2023-04-26T19:13:39.605Z,99215.57
2023-04-26T19:16:07.468Z,99216.03
2023-04-26T19:18:39.782Z,99220.64
2023-04-26T19:21:07.692Z,99221.77
2023-04-26T19:23:35.356Z,99222.19
2023-04-26T19:26:07.363Z,99219.08
2023-04-26T19:28:35.218Z,99216.67
2023-04-26T19:31:01.875Z,99215.71
2023-04-26T19:33:28.828Z,99217.20
2023-04-26T19:35:56.049Z,99217.45
2023-04-26T19:38:23.613Z,99221.25
2023-04-26T19:40:50.906Z,99224.19
2023-04-26T19:43:17.860Z,99227.13
2023-04-26T19:45:44.936Z,99231.35
2023-04-26T19:48:12.590Z,99230.48
2023-04-26T19:50:43.889Z,99230.83
2023-04-26T19:53:12.534Z,99235.02
2023-04-26T19:55:40.462Z,99232.39
2023-04-26T19:58:07.816Z,99232.07
2023-04-26T20:00:38.319Z,99235.23
2023-04-26T20:03:05.626Z,99233.70
2023-04-26T20:05:32.893Z,99234.23
2023-04-26T20:07:59.537Z,99234.73
2023-04-26T20:10:29.677Z,99237.14
2023-04-26T20:12:56.359Z,99239.20
2023-04-26T20:15:23.525Z,99240.75
2023-04-26T20:17:50.141Z,99241.09
2023-04-26T20:20:16.759Z,99241.05
2023-04-26T20:22:43.283Z,99239.94
2023-04-26T20:25:10.191Z,99242.02
2023-04-26T20:27:36.748Z,99240.45
2023-04-26T20:30:03.678Z,99245.88
2023-04-26T20:32:30.192Z,99243.80
2023-04-26T20:34:56.766Z,99242.19
2023-04-26T20:37:23.446Z,99247.00
2023-04-26T20:39:50.087Z,99248.87
2023-04-26T20:42:16.626Z,99252.29
2023-04-26T20:44:43.274Z,99251.66
2023-04-26T20:47:09.944Z,99252.07
2023-04-26T20:49:36.667Z,99250.52
2023-04-26T20:52:03.487Z,99252.69
2023-04-26T20:54:30.933Z,99251.04
2023-04-26T20:56:57.661Z,99254.60
2023-04-26T20:59:25.345Z,99252.42
2023-04-26T21:01:52.985Z,99251.70
2023-04-26T21:04:19.910Z,99254.08
2023-04-26T21:06:46.699Z,99257.63
2023-04-26T21:09:13.229Z,99259.96
2023-04-26T21:11:39.885Z,99259.73
2023-04-26T21:14:06.508Z,99261.39
2023-04-26T21:16:33.165Z,99261.15
2023-04-26T21:18:59.868Z,99259.35
2023-04-26T21:21:28.388Z,99260.48
2023-04-26T21:23:54.977Z,99262.39
2023-04-26T21:26:21.577Z,99260.42
2023-04-26T21:28:48.163Z,99264.16
2023-04-26T21:31:14.973Z,99266.86
2023-04-26T21:33:41.578Z,99266.94
2023-04-26T21:36:08.510Z,99270.69
2023-04-26T21:38:35.216Z,99268.84
2023-04-26T21:41:01.809Z,99268.58
2023-04-26T21:43:28.496Z,99269.72
2023-04-26T21:45:57.189Z,99271.40
2023-04-26T21:48:24.327Z,99272.91
2023-04-26T21:50:50.932Z,99275.27
2023-04-26T21:53:17.698Z,99275.00
2023-04-26T21:55:50.849Z,99277.38
2023-04-26T21:58:18.601Z,99282.88
2023-04-26T22:00:46.025Z,99280.20
2023-04-26T22:03:13.627Z,99283.44
2023-04-26T22:05:40.310Z,99285.63
2023-04-26T22:08:06.856Z,99290.45
2023-04-26T22:10:33.855Z,99290.05
2023-04-26T22:13:00.547Z,99289.95
2023-04-26T22:15:27.393Z,99295.79
2023-04-26T22:17:53.947Z,99295.34
2023-04-26T22:20:20.918Z,99294.54
2023-04-26T22:22:47.541Z,99296.88
2023-04-26T22:25:14.038Z,99297.28
2023-04-26T22:27:40.547Z,99296.27
2023-04-26T22:30:22.962Z,99297.73
2023-04-26T22:32:53.480Z,99294.48
2023-04-26T22:35:20.982Z,99294.22
2023-04-26T22:37:47.616Z,99295.15
2023-04-26T22:40:15.524Z,99298.02
2023-04-26T22:42:42.717Z,99298.64
2023-04-26T22:45:10.785Z,99301.17
2023-04-26T22:47:38.090Z,99299.52
2023-04-26T22:50:05.407Z,99299.44
2023-04-26T22:52:32.438Z,99301.78
2023-04-26T22:55:00.060Z,99301.50
2023-04-26T22:57:28.127Z,99304.51
2023-04-26T22:59:54.732Z,99305.80
2023-04-26T23:02:21.442Z,99302.07
2023-04-26T23:04:48.354Z,99306.33
2023-04-26T23:07:15.736Z,99305.19
2023-04-26T23:09:42.303Z,99308.74
2023-04-26T23:12:09.252Z,99310.55
2023-04-26T23:14:35.841Z,99313.09
2023-04-26T23:17:02.633Z,99314.89
2023-04-26T23:19:29.341Z,99312.86
2023-04-26T23:21:55.913Z,99314.27
2023-04-26T23:24:22.524Z,99313.98
2023-04-26T23:26:49.062Z,99317.17
2023-04-26T23:29:15.653Z,99315.45
2023-04-26T23:31:42.434Z,99321.70
2023-04-26T23:34:09.143Z,99319.48
2023-04-26T23:36:35.782Z,99319.35
2023-04-26T23:39:03.134Z,99321.84
2023-04-26T23:41:29.699Z,99322.42
2023-04-26T23:43:56.228Z,99324.00
2023-04-26T23:46:22.883Z,99322.83
2023-04-26T23:48:49.835Z,99324.42
2023-04-26T23:51:16.661Z,99324.83
2023-04-26T23:53:44.232Z,99322.44
2023-04-26T23:56:10.809Z,99329.45
2023-04-26T23:58:37.351Z,99325.33
